createdAt,value
2023-05-21T00:00:12.827Z,59.50
2023-05-21T00:02:40.955Z,58.40
2023-05-21T00:05:14.653Z,60.40
2023-05-21T00:07:42.324Z,65.50
2023-05-21T00:10:10.046Z,70.10
2023-05-21T00:12:37.611Z,71.50
2023-05-21T00:15:06.771Z,71.00
2023-05-21T00:17:37.226Z,76.20
2023-05-21T00:20:09.013Z,82.30
2023-05-21T00:22:36.649Z,81.30
2023-05-21T00:25:04.168Z,85.40
2023-05-21T00:27:31.330Z,86.70
2023-05-21T00:29:58.167Z,85.80
2023-05-21T00:32:26.772Z,88.50
2023-05-21T00:34:54.716Z,92.50
2023-05-21T00:37:24.644Z,97.30
2023-05-21T00:39:51.517Z,99.90
2023-05-21T00:42:18.731Z,99.90
2023-05-21T00:44:46.320Z,99.90
2023-05-21T00:47:14.596Z,99.90
2023-05-21T00:49:42.817Z,99.90
2023-05-21T00:52:10.273Z,99.90
2023-05-21T00:54:37.174Z,99.90
2023-05-21T00:57:05.393Z,99.90
2023-05-21T00:59:33.324Z,99.90
2023-05-21T01:02:04.966Z,99.90
2023-05-21T01:04:32.085Z,99.90
2023-05-21T01:07:00.862Z,99.90
2023-05-21T01:09:28.480Z,99.90
2023-05-21T01:11:56.563Z,99.90
2023-05-21T01:14:24.913Z,99.90
2023-05-21T01:16:52.982Z,99.90
2023-05-21T01:19:22.227Z,99.90
2023-05-21T01:21:51.327Z,99.90
2023-05-21T01:24:19.770Z,99.90
2023-05-21T01:26:47.023Z,99.90
2023-05-21T01:29:14.509Z,99.90
2023-05-21T01:31:52.601Z,99.90
2023-05-21T01:34:23.877Z,99.90
2023-05-21T01:36:58.586Z,99.90
2023-05-21T01:39:32.406Z,99.90
2023-05-21T01:42:03.080Z,99.90
2023-05-21T01:44:31.623Z,99.90
2023-05-21T01:46:59.817Z,99.90
2023-05-21T01:49:27.135Z,99.90
2023-05-21T01:51:54.510Z,99.90
2023-05-21T01:54:21.991Z,99.90
2023-05-21T01:56:51.082Z,99.90
2023-05-21T01:59:18.380Z,99.90
2023-05-21T02:01:45.612Z,99.90
2023-05-21T02:04:12.484Z,99.90
2023-05-21T02:06:39.921Z,99.90
2023-05-21T02:09:06.772Z,99.90
2023-05-21T02:11:35.000Z,99.90
2023-05-21T02:14:03.803Z,99.90
2023-05-21T02:16:31.100Z,99.90
2023-05-21T02:18:58.585Z,99.90
2023-05-21T02:21:25.449Z,99.90
2023-05-21T02:23:52.662Z,99.90
2023-05-21T02:26:19.531Z,99.90
2023-05-21T02:28:46.666Z,99.90
2023-05-21T02:31:14.984Z,99.90
2023-05-21T02:33:42.770Z,99.90
2023-05-21T02:36:13.375Z,99.90
2023-05-21T02:38:44.015Z,99.90
2023-05-21T02:41:11.231Z,99.90
2023-05-21T02:43:38.146Z,99.90
2023-05-21T02:46:06.091Z,99.90
2023-05-21T02:48:34.758Z,99.90
2023-05-21T02:51:01.613Z,99.90
2023-05-21T02:53:28.805Z,99.90
2023-05-21T02:55:56.411Z,99.90
2023-05-21T02:58:25.517Z,99.90
2023-05-21T03:00:53.607Z,99.90
2023-05-21T03:03:21.120Z,99.90
2023-05-21T03:05:49.559Z,99.90
2023-05-21T03:08:17.284Z,99.90
2023-05-21T03:10:44.153Z,99.90
2023-05-21T03:13:11.458Z,99.90
2023-05-21T03:15:39.664Z,99.90
2023-05-21T03:18:06.812Z,99.90
2023-05-21T03:20:33.669Z,99.90
2023-05-21T03:23:04.616Z,99.90
2023-05-21T03:25:31.608Z,99.90
2023-05-21T03:27:58.880Z,99.90
2023-05-21T03:30:25.827Z,99.90
2023-05-21T03:32:52.982Z,99.90
2023-05-21T03:35:19.837Z,99.90
2023-05-21T03:37:47.069Z,99.90
2023-05-21T03:40:15.690Z,99.90
2023-05-21T03:42:42.836Z,99.90
2023-05-21T03:45:10.428Z,99.90
2023-05-21T03:47:37.667Z,99.90
2023-05-21T03:50:05.780Z,99.90
2023-05-21T03:52:33.029Z,99.90
2023-05-21T03:54:59.978Z,99.90
2023-05-21T03:57:28.767Z,99.90
2023-05-21T03:59:55.984Z,99.90
2023-05-21T04:02:23.580Z,99.90
2023-05-21T04:04:51.682Z,99.90
2023-05-21T04:07:19.538Z,99.90
2023-05-21T04:09:46.855Z,99.90
2023-05-21T04:12:14.161Z,99.90
2023-05-21T04:14:42.348Z,99.90
2023-05-21T04:17:10.044Z,99.90
2023-05-21T04:19:36.998Z,99.90
2023-05-21T04:22:04.513Z,99.90
2023-05-21T04:24:31.350Z,99.90
2023-05-21T04:27:01.748Z,99.90
2023-05-21T04:29:29.891Z,99.90
2023-05-21T04:31:58.532Z,99.90
2023-05-21T04:34:25.873Z,99.90
2023-05-21T04:36:54.247Z,99.90
2023-05-21T04:39:21.151Z,99.90
2023-05-21T04:41:51.149Z,99.90
2023-05-21T04:44:18.345Z,99.90
2023-05-21T04:46:46.070Z,99.90
2023-05-21T04:49:15.287Z,99.90
2023-05-21T04:51:42.174Z,99.90
2023-05-21T04:54:09.005Z,99.90
2023-05-21T04:56:36.354Z,99.90
2023-05-21T04:59:05.511Z,99.90
2023-05-21T05:01:35.481Z,99.90
2023-05-21T05:04:02.458Z,99.90
2023-05-21T05:06:31.458Z,99.90
2023-05-21T05:08:58.284Z,99.90
2023-05-21T05:11:25.516Z,99.90
2023-05-21T05:13:52.577Z,99.90
2023-05-21T05:16:25.581Z,99.90
2023-05-21T05:18:53.131Z,99.90
2023-05-21T05:21:23.134Z,99.90
2023-05-21T05:23:51.360Z,99.90
2023-05-21T05:26:18.720Z,99.90
2023-05-21T05:28:46.295Z,99.90
2023-05-21T05:31:13.375Z,99.90
2023-05-21T05:33:41.439Z,99.90
2023-05-21T05:36:08.782Z,99.90
2023-05-21T05:38:36.040Z,99.90
2023-05-21T05:41:04.758Z,99.90
2023-05-21T05:43:31.640Z,99.90
2023-05-21T05:45:58.902Z,99.90
2023-05-21T05:48:25.876Z,99.90
2023-05-21T05:50:54.798Z,99.90
2023-05-21T05:53:21.771Z,99.90
2023-05-21T05:55:48.953Z,99.90
2023-05-21T05:58:17.625Z,99.90
2023-05-21T06:00:44.968Z,99.90
2023-05-21T06:03:12.176Z,99.90
2023-05-21T06:05:39.771Z,99.90
2023-05-21T06:08:07.017Z,99.90
2023-05-21T06:10:34.211Z,99.90
2023-05-21T06:13:01.088Z,99.90
2023-05-21T06:15:30.187Z,99.90
2023-05-21T06:17:57.033Z,99.90
2023-05-21T06:20:24.255Z,99.90
2023-05-21T06:22:51.062Z,99.90
2023-05-21T06:25:18.409Z,99.90
2023-05-21T06:27:45.419Z,99.90
2023-05-21T06:30:12.828Z,99.90
2023-05-21T06:32:41.201Z,99.90
2023-05-21T06:35:09.423Z,99.90
2023-05-21T06:37:36.304Z,97.80
2023-05-21T06:40:04.202Z,96.90
2023-05-21T06:42:31.044Z,92.30
2023-05-21T06:44:57.963Z,81.60
2023-05-21T06:47:24.933Z,82.00
2023-05-21T06:49:53.609Z,67.30
2023-05-21T06:52:20.463Z,63.80
2023-05-21T06:54:47.642Z,61.10
2023-05-21T06:57:16.269Z,56.80
2023-05-21T06:59:43.475Z,52.30
2023-05-21T07:02:10.450Z,50.20
2023-05-21T07:04:37.826Z,65.30
2023-05-21T07:07:06.104Z,34.10
2023-05-21T07:09:33.084Z,14.90
2023-05-21T07:12:00.067Z,10.30
2023-05-21T07:14:27.312Z,13.10
2023-05-21T07:16:54.224Z,2.50
2023-05-21T07:19:21.944Z,1.00
2023-05-21T07:21:49.533Z,5.00
2023-05-21T07:24:18.094Z,4.10
2023-05-21T07:26:44.957Z,1.00
2023-05-21T07:29:12.167Z,1.00
2023-05-21T07:31:39.245Z,1.00
2023-05-21T07:34:06.691Z,1.00
2023-05-21T07:36:34.074Z,1.00
2023-05-21T07:39:01.419Z,1.00
2023-05-21T07:41:29.614Z,1.00
2023-05-21T07:43:56.967Z,1.00
2023-05-21T07:46:23.844Z,1.00
2023-05-21T07:48:52.155Z,1.00
2023-05-21T07:51:19.281Z,1.00
2023-05-21T07:53:46.443Z,1.00
2023-05-21T07:56:13.305Z,1.10
2023-05-21T07:58:44.153Z,1.00
2023-05-21T08:01:11.249Z,1.00
2023-05-21T08:03:38.718Z,1.00
2023-05-21T08:06:05.739Z,1.00
2023-05-21T08:08:33.070Z,1.00
2023-05-21T08:11:00.030Z,1.00
2023-05-21T08:13:27.201Z,1.00
2023-05-21T08:15:55.478Z,1.00
2023-05-21T08:18:24.147Z,1.00
2023-05-21T08:20:51.674Z,1.00
2023-05-21T08:23:18.660Z,1.00
2023-05-21T08:25:45.693Z,1.00
2023-05-21T08:28:12.531Z,1.00
2023-05-21T08:30:39.428Z,1.00
2023-05-21T08:33:08.025Z,1.00
2023-05-21T08:35:35.143Z,1.00
2023-05-21T08:38:02.831Z,1.00
2023-05-21T08:40:30.867Z,1.00
2023-05-21T08:42:58.660Z,1.00
2023-05-21T08:45:26.896Z,1.00
2023-05-21T08:47:57.514Z,1.00
2023-05-21T08:50:27.738Z,1.00
2023-05-21T08:52:55.833Z,1.00
2023-05-21T08:55:23.594Z,1.00
2023-05-21T08:57:53.741Z,1.00
2023-05-21T09:00:21.233Z,1.00
2023-05-21T09:02:48.239Z,1.00
2023-05-21T09:05:16.459Z,1.00
2023-05-21T09:07:55.787Z,1.00
2023-05-21T09:10:27.107Z,1.00
2023-05-21T09:12:54.374Z,1.00
2023-05-21T09:15:21.626Z,1.00
2023-05-21T09:17:49.299Z,1.00
2023-05-21T09:20:16.742Z,1.00
2023-05-21T09:22:46.985Z,1.00
2023-05-21T09:25:15.715Z,1.00
2023-05-21T09:27:43.146Z,1.00
2023-05-21T09:30:11.683Z,1.00
2023-05-21T09:32:39.113Z,1.00
2023-05-21T09:35:11.526Z,1.00
2023-05-21T09:37:39.201Z,1.00
2023-05-21T09:40:13.505Z,1.00
2023-05-21T09:42:40.897Z,1.00
2023-05-21T09:45:09.726Z,1.00
2023-05-21T09:47:41.717Z,1.00
2023-05-21T09:50:10.092Z,1.00
2023-05-21T09:52:38.295Z,1.00
2023-05-21T09:55:07.011Z,1.00
2023-05-21T09:57:41.399Z,1.00
2023-05-21T10:00:10.781Z,1.00
2023-05-21T10:02:42.474Z,1.00
2023-05-21T10:05:12.260Z,1.00
2023-05-21T10:07:42.074Z,1.00
2023-05-21T10:10:12.910Z,1.00
2023-05-21T10:12:43.884Z,1.00
2023-05-21T10:15:14.852Z,1.00
2023-05-21T10:17:42.725Z,1.00
2023-05-21T10:20:12.579Z,1.00
2023-05-21T10:22:40.773Z,1.00
2023-05-21T10:25:08.538Z,1.00
2023-05-21T10:27:35.771Z,1.00
2023-05-21T10:30:05.763Z,1.00
2023-05-21T10:32:33.863Z,1.00
2023-05-21T10:35:02.380Z,1.00
2023-05-21T10:37:29.947Z,1.00
2023-05-21T10:39:57.371Z,1.00
2023-05-21T10:42:57.490Z,1.00
2023-05-21T10:45:36.535Z,1.00
2023-05-21T10:48:15.218Z,1.00
2023-05-21T10:51:01.678Z,1.00
2023-05-21T10:53:39.110Z,1.00
2023-05-21T10:56:16.485Z,1.00
2023-05-21T10:59:04.886Z,1.00
2023-05-21T11:01:37.396Z,1.00
2023-05-21T11:04:06.560Z,1.00
2023-05-21T11:06:33.536Z,1.00
2023-05-21T11:09:11.472Z,1.00
2023-05-21T11:11:43.282Z,1.00
2023-05-21T11:14:31.770Z,1.00
2023-05-21T11:17:01.233Z,1.00
2023-05-21T11:19:39.526Z,1.00
2023-05-21T11:22:20.919Z,1.00
2023-05-21T11:24:50.544Z,1.00
2023-05-21T11:27:32.443Z,1.00
2023-05-21T11:30:00.025Z,1.00
2023-05-21T11:32:29.826Z,1.00
2023-05-21T11:35:01.433Z,1.00
2023-05-21T11:37:35.104Z,1.00
2023-05-21T11:40:25.694Z,1.00
2023-05-21T11:42:54.502Z,1.00
2023-05-21T11:45:23.082Z,1.00
2023-05-21T11:47:53.836Z,1.00
2023-05-21T11:50:21.168Z,1.00
2023-05-21T11:52:49.888Z,1.00
2023-05-21T11:55:22.057Z,1.00
2023-05-21T11:57:54.018Z,1.00
2023-05-21T12:00:21.578Z,1.00
2023-05-21T12:02:53.018Z,1.00
2023-05-21T12:05:20.715Z,1.00
2023-05-21T12:07:50.425Z,1.00
2023-05-21T12:10:20.619Z,1.00
2023-05-21T12:12:54.916Z,1.00
2023-05-21T12:15:24.669Z,1.00
2023-05-21T12:17:54.580Z,1.00
2023-05-21T12:20:26.265Z,1.00
2023-05-21T12:22:53.452Z,1.00
2023-05-21T12:25:22.830Z,1.00
2023-05-21T12:27:58.107Z,99.90
2023-05-21T12:30:25.911Z,99.90
2023-05-21T12:32:57.875Z,99.90
2023-05-21T12:35:25.101Z,99.90
2023-05-21T12:37:52.937Z,99.90
2023-05-21T12:40:20.272Z,99.90
2023-05-21T12:42:47.199Z,99.90
2023-05-21T12:45:15.112Z,99.90
2023-05-21T12:47:47.918Z,99.90
2023-05-21T12:50:21.431Z,99.90
2023-05-21T12:52:48.601Z,99.90
2023-05-21T12:55:16.702Z,99.90
2023-05-21T12:57:43.967Z,99.90
2023-05-21T13:00:12.082Z,99.90
2023-05-21T13:02:40.478Z,99.90
2023-05-21T13:05:09.733Z,99.90
2023-05-21T13:07:39.393Z,99.90
2023-05-21T13:10:07.772Z,99.90
2023-05-21T13:12:35.325Z,99.90
2023-05-21T13:15:04.360Z,99.90
2023-05-21T13:17:31.477Z,99.90
2023-05-21T13:20:07.596Z,99.90
2023-05-21T13:22:35.765Z,99.90
2023-05-21T13:25:04.550Z,99.90
2023-05-21T13:27:31.449Z,99.90
2023-05-21T13:29:58.450Z,99.90
2023-05-21T13:32:25.907Z,99.90
2023-05-21T13:34:52.772Z,99.90
2023-05-21T13:37:20.594Z,99.90
2023-05-21T13:39:47.902Z,99.90
2023-05-21T13:42:16.464Z,99.90
2023-05-21T13:44:43.852Z,99.90
2023-05-21T13:47:12.050Z,99.90
2023-05-21T13:49:39.057Z,99.90
2023-05-21T13:52:06.896Z,99.90
2023-05-21T13:54:33.852Z,99.90
2023-05-21T13:57:01.192Z,99.90
2023-05-21T13:59:31.988Z,99.90
2023-05-21T14:02:02.308Z,99.90
2023-05-21T14:04:29.323Z,99.90
2023-05-21T14:06:56.697Z,99.90
2023-05-21T14:09:27.328Z,99.90
2023-05-21T14:11:55.089Z,99.90
2023-05-21T14:14:22.957Z,99.90
2023-05-21T14:16:51.626Z,99.90
2023-05-21T14:19:19.186Z,99.90
2023-05-21T14:21:46.126Z,99.90
2023-05-21T14:24:13.110Z,99.90
2023-05-21T14:26:41.378Z,99.90
2023-05-21T14:29:08.857Z,99.90
2023-05-21T14:31:36.096Z,99.90
2023-05-21T14:34:05.216Z,99.90
2023-05-21T14:36:32.525Z,99.90
2023-05-21T14:38:59.774Z,99.90
2023-05-21T14:41:27.567Z,99.90
2023-05-21T14:43:55.511Z,99.90
2023-05-21T14:46:22.647Z,99.90
2023-05-21T14:48:49.969Z,99.90
2023-05-21T14:51:19.197Z,99.90
2023-05-21T14:53:46.087Z,99.90
2023-05-21T14:56:13.026Z,99.90
2023-05-21T14:58:40.209Z,99.90
2023-05-21T15:01:07.985Z,99.90
2023-05-21T15:03:35.346Z,99.90
2023-05-21T15:06:05.149Z,99.90
2023-05-21T15:08:33.493Z,99.90
2023-05-21T15:11:00.700Z,99.90
2023-05-21T15:13:38.280Z,99.90
2023-05-21T15:16:05.760Z,99.90
2023-05-21T15:18:33.196Z,99.90
2023-05-21T15:21:00.620Z,99.90
2023-05-21T15:23:27.652Z,99.90
2023-05-21T15:25:55.247Z,99.90
2023-05-21T15:28:23.437Z,99.90
2023-05-21T15:30:51.696Z,99.90
2023-05-21T15:33:19.008Z,99.90
2023-05-21T15:35:46.470Z,99.90
2023-05-21T15:38:13.459Z,99.90
2023-05-21T15:40:44.142Z,99.90
2023-05-21T15:43:11.411Z,99.90
2023-05-21T15:45:39.140Z,99.90
2023-05-21T15:48:08.267Z,99.90
2023-05-21T15:50:38.195Z,99.90
2023-05-21T15:53:05.239Z,99.90
2023-05-21T15:55:33.224Z,99.90
2023-05-21T15:58:02.213Z,99.90
2023-05-21T16:00:29.529Z,99.90
2023-05-21T16:02:56.523Z,99.90
2023-05-21T16:05:25.550Z,99.90
2023-05-21T16:07:52.776Z,99.90
2023-05-21T16:10:19.727Z,99.90
2023-05-21T16:12:46.956Z,99.90
2023-05-21T16:15:14.073Z,99.90
2023-05-21T16:17:44.297Z,99.90
2023-05-21T16:20:13.001Z,99.90
2023-05-21T16:22:42.091Z,99.90
2023-05-21T16:25:09.942Z,99.90
2023-05-21T16:27:37.080Z,99.90
2023-05-21T16:30:04.600Z,99.90
2023-05-21T16:32:31.949Z,99.90
2023-05-21T16:34:58.965Z,99.90
2023-05-21T16:37:26.831Z,99.90
2023-05-21T16:39:55.016Z,99.90
2023-05-21T16:42:22.488Z,99.90
2023-05-21T16:44:49.342Z,99.90
2023-05-21T16:47:16.604Z,99.90
2023-05-21T16:49:43.505Z,99.90
2023-05-21T16:52:10.879Z,99.90
2023-05-21T16:54:37.723Z,99.90
2023-05-21T16:57:06.744Z,99.90
2023-05-21T16:59:33.691Z,99.90
2023-05-21T17:02:01.277Z,99.90
2023-05-21T17:04:28.938Z,99.90
2023-05-21T17:06:56.165Z,99.90
2023-05-21T17:09:23.035Z,99.90
2023-05-21T17:11:50.465Z,99.90
2023-05-21T17:14:32.606Z,99.90
2023-05-21T17:17:01.098Z,99.90
2023-05-21T17:19:31.204Z,99.90
2023-05-21T17:21:58.583Z,99.90
2023-05-21T17:24:25.859Z,99.90
2023-05-21T17:26:53.647Z,99.90
2023-05-21T17:29:21.986Z,99.90
2023-05-21T17:31:49.205Z,99.90
2023-05-21T17:34:16.701Z,99.90
2023-05-21T17:36:44.110Z,99.90
2023-05-21T17:39:10.978Z,99.90
2023-05-21T17:41:37.944Z,99.90
2023-05-21T17:44:05.374Z,99.90
2023-05-21T17:46:34.015Z,99.90
2023-05-21T17:49:01.028Z,99.90
2023-05-21T17:51:28.297Z,99.90
2023-05-21T17:53:56.319Z,1.00
2023-05-21T17:56:23.346Z,1.00
2023-05-21T17:58:50.750Z,1.00
2023-05-21T18:01:18.321Z,1.00
2023-05-21T18:03:46.715Z,1.00
2023-05-21T18:06:13.981Z,1.00
2023-05-21T18:08:40.920Z,1.00
2023-05-21T18:11:09.285Z,1.00
2023-05-21T18:13:36.160Z,1.00
2023-05-21T18:16:03.021Z,1.00
2023-05-21T18:18:29.936Z,1.00
2023-05-21T18:20:58.249Z,1.00
2023-05-21T18:23:27.372Z,1.00
2023-05-21T18:25:55.707Z,1.00
2023-05-21T18:28:22.799Z,1.00
2023-05-21T18:30:49.725Z,1.00
2023-05-21T18:33:16.806Z,1.00
2023-05-21T18:35:44.559Z,1.00
2023-05-21T18:38:12.991Z,1.00
2023-05-21T18:40:39.886Z,1.00
2023-05-21T18:43:06.747Z,1.00
2023-05-21T18:45:33.811Z,1.00
2023-05-21T18:48:00.907Z,1.00
2023-05-21T18:50:27.945Z,1.00
2023-05-21T18:52:57.613Z,1.00
2023-05-21T18:55:26.326Z,1.00
2023-05-21T18:57:54.267Z,1.00
2023-05-21T19:00:21.792Z,1.00
2023-05-21T19:02:48.804Z,1.00
2023-05-21T19:05:16.283Z,1.00
2023-05-21T19:07:43.198Z,1.00
2023-05-21T19:10:11.606Z,1.00
2023-05-21T19:12:41.803Z,1.00
2023-05-21T19:15:09.891Z,1.00
2023-05-21T19:17:38.994Z,1.00
2023-05-21T19:20:07.751Z,1.00
2023-05-21T19:22:36.879Z,1.00
2023-05-21T19:25:04.405Z,1.00
2023-05-21T19:27:31.389Z,1.00
2023-05-21T19:29:59.930Z,1.00
2023-05-21T19:32:26.899Z,1.00
2023-05-21T19:34:54.104Z,1.00
2023-05-21T19:37:21.186Z,1.00
2023-05-21T19:39:50.025Z,1.00
2023-05-21T19:42:17.686Z,1.00
2023-05-21T19:44:44.820Z,1.00
2023-05-21T19:47:13.258Z,1.00
2023-05-21T19:49:40.462Z,1.00
2023-05-21T19:52:07.370Z,1.00
2023-05-21T19:54:34.310Z,1.00
2023-05-21T19:57:01.153Z,1.00
2023-05-21T19:59:28.275Z,1.00
2023-05-21T20:01:55.456Z,1.00
2023-05-21T20:04:23.695Z,1.00
2023-05-21T20:06:51.973Z,1.00
2023-05-21T20:09:18.800Z,1.00
2023-05-21T20:11:45.790Z,1.00
2023-05-21T20:14:13.360Z,1.00
2023-05-21T20:16:42.250Z,1.00
2023-05-21T20:19:10.706Z,1.00
2023-05-21T20:21:39.057Z,1.00
2023-05-21T20:24:06.901Z,1.00
2023-05-21T20:26:36.816Z,1.00
2023-05-21T20:29:03.636Z,1.00
2023-05-21T20:31:30.570Z,1.00
2023-05-21T20:33:58.704Z,1.00
2023-05-21T20:36:25.858Z,1.00
2023-05-21T20:38:54.103Z,1.00
2023-05-21T20:41:21.752Z,1.00
2023-05-21T20:43:48.593Z,1.00
2023-05-21T20:46:17.494Z,1.00
2023-05-21T20:48:44.519Z,1.00
2023-05-21T20:51:11.494Z,1.00
2023-05-21T20:53:38.378Z,1.00
2023-05-21T20:56:08.283Z,1.00
2023-05-21T20:58:35.483Z,1.00
2023-05-21T21:01:03.040Z,1.00
2023-05-21T21:03:33.724Z,1.00
2023-05-21T21:06:01.462Z,1.00
2023-05-21T21:08:28.352Z,1.00
2023-05-21T21:10:55.591Z,1.00
2023-05-21T21:13:23.823Z,1.00
2023-05-21T21:15:50.811Z,1.00
2023-05-21T21:18:17.886Z,1.00
2023-05-21T21:20:49.766Z,1.00
2023-05-21T21:23:16.911Z,1.00
2023-05-21T21:25:44.259Z,1.00
2023-05-21T21:28:11.126Z,1.00
2023-05-21T21:30:40.827Z,1.00
2023-05-21T21:33:08.817Z,1.00
2023-05-21T21:35:35.946Z,1.00
2023-05-21T21:38:04.803Z,1.00
2023-05-21T21:40:31.678Z,1.00
2023-05-21T21:42:59.182Z,1.00
2023-05-21T21:45:26.049Z,1.00
2023-05-21T21:47:54.807Z,1.00
2023-05-21T21:50:21.754Z,1.00
2023-05-21T21:52:49.271Z,1.00
2023-05-21T21:55:16.171Z,1.00
2023-05-21T21:57:43.321Z,1.00
2023-05-21T22:00:20.858Z,1.00
2023-05-21T22:02:48.067Z,1.00
2023-05-21T22:05:16.334Z,1.00
2023-05-21T22:07:46.806Z,1.00
2023-05-21T22:10:14.650Z,1.00
2023-05-21T22:12:42.189Z,1.00
2023-05-21T22:15:18.056Z,1.00
2023-05-21T22:17:45.532Z,1.00
2023-05-21T22:20:12.564Z,1.00
2023-05-21T22:22:41.273Z,1.00
2023-05-21T22:25:08.621Z,1.00
2023-05-21T22:27:36.889Z,1.00
2023-05-21T22:30:04.559Z,1.00
2023-05-21T22:32:31.701Z,1.00
2023-05-21T22:34:58.562Z,1.00
2023-05-21T22:37:26.514Z,1.00
2023-05-21T22:39:54.737Z,1.00
2023-05-21T22:42:21.985Z,1.00
2023-05-21T22:44:48.835Z,1.00
2023-05-21T22:47:16.537Z,1.00
2023-05-21T22:49:43.405Z,1.00
2023-05-21T22:52:11.020Z,1.00
2023-05-21T22:54:37.932Z,1.00
2023-05-21T22:57:06.436Z,1.00
2023-05-21T22:59:33.839Z,1.00
2023-05-21T23:02:01.231Z,1.00
2023-05-21T23:04:43.389Z,1.00
2023-05-21T23:07:11.747Z,1.00
2023-05-21T23:09:38.648Z,1.00
2023-05-21T23:12:07.716Z,1.00
2023-05-21T23:14:34.609Z,1.00
2023-05-21T23:17:02.516Z,1.00
2023-05-21T23:19:29.755Z,1.00
2023-05-21T23:21:57.030Z,1.00
2023-05-21T23:24:24.252Z,1.00
2023-05-21T23:26:53.340Z,1.00
2023-05-21T23:29:21.476Z,1.00
2023-05-21T23:31:48.399Z,1.00
2023-05-21T23:34:15.475Z,1.00
2023-05-21T23:36:42.638Z,1.00
2023-05-21T23:39:09.598Z,1.00
2023-05-21T23:41:37.338Z,1.00
2023-05-21T23:44:04.724Z,1.00
2023-05-21T23:46:32.908Z,1.00
2023-05-21T23:49:00.136Z,1.00
2023-05-21T23:51:27.520Z,1.00
2023-05-21T23:53:54.693Z,1.00
2023-05-21T23:56:21.768Z,1.00
2023-05-21T23:58:49.119Z,1.00
